Hourly Reports from 6 nearest airdromes.

 

EGHI - Southampton Wx C, United Kingdom
Distance from station: NNW 4mi, 7km
Updated: Mon, 06-Dec-2021 13:20 GMT
Rain, Mostly cloudy
Rain, Mostly cloudy
 Wind from WSW
Wind: WSW 6 mph , 9 km/h
Temperature: 8°C
Wind Chill: 6°C
Dew Point: 7°C
Humidity: 93%
Barometer: 1006 hPa
Summary: Rain
Clouds: Mostly Cloudy
Visibility: 3 miles , 5 km
Cloud details: Few Clouds 305 m
Partly Cloudy 518 m
Mostly Cloudy 914 m
2021/12/06 13:20 EGHI 061320Z 25005KT 190V310 5000 RA FEW010 SCT017 BKN030 08/07 Q1006
EGVP - Middle Wallop, United Kingdom
Distance from station: NW 20mi, 32km
Updated: Mon, 06-Dec-2021 13:20 GMT
Mostly Cloudy
Mostly Cloudy
 Wind from SSW
Wind: SSW 10 mph , 17 km/h
Temperature: 7°C
Wind Chill: 4°C
Dew Point: 7°C
Humidity: 100%
Barometer: 1005 hPa
Clouds: Mostly Cloudy
Visibility: 6 miles , 10 km
Cloud details: Few Clouds 183 m
Mostly Cloudy 2134 m
2021/12/06 13:20 EGVP 061320Z 21009KT 9999 FEW006 BKN070 07/07 Q1005 NOSIG RMK BLU BLU
 
EGHH - Bournemouth Airp, United Kingdom
Distance from station: WSW 25mi, 40km
Updated: Mon, 06-Dec-2021 13:20 GMT
Light rain, Showers, Mostly cloudy
Light rain, Showers, Mostly cloudy
 Wind from NW
Wind: NW 14 mph , 22 km/h
Temperature: 8°C
Wind Chill: 4°C
Dew Point: 7°C
Humidity: 93%
Barometer: 1006 hPa
Summary: Light rain, Showers
Clouds: Mostly Cloudy
Visibility: 6 miles , 10 km
Cloud details: Few Clouds 122 m
Partly Cloudy 335 m
Mostly Cloudy 610 m
2021/12/06 13:20 EGHH 061320Z 31012KT 280V350 9999 -SHRA FEW004 SCT011CB BKN020 08/07 Q1006 RESHRA
EGDM - Boscombe Down, United Kingdom
Distance from station: NW 27mi, 43km
Updated: Mon, 06-Dec-2021 13:20 GMT
Mostly Cloudy
Mostly Cloudy
 Wind from SSW
Wind: SSW 8 mph , 13 km/h
Temperature: 7°C
Wind Chill: 5°C
Dew Point: 7°C
Humidity: 100%
Barometer: 1005 hPa
Clouds: Mostly Cloudy
Visibility: 6 miles , 10 km
Cloud details: Few Clouds 305 m
Partly Cloudy 914 m
Mostly Cloudy 2438 m
2021/12/06 13:20 EGDM 061320Z 21007KT 9999 FEW010 SCT030 BKN080 07/07 Q1005 NOSIG RMK BLU BLU
 
EGVO - Odiham Raf, United Kingdom
Distance from station: NNE 28mi, 44km
Updated: Mon, 06-Dec-2021 13:20 GMT
Light rain, Overcast
Light rain, Overcast
 Wind from S
Wind: S 18 mph , 30 km/h
Temperature: 7°C
Wind Chill: 3°C
Dew Point: 6°C
Humidity: 93%
Barometer: 1005 hPa
Summary: Light Rain
Clouds: Overcast
Visibility: 6 miles , 10 km
Cloud details: Partly Cloudy 213 m
Overcast 1524 m
2021/12/06 13:20 EGVO 061320Z 19016KT 9999 -RA SCT007 OVC050 07/06 Q1005 BECMG SCT020 RMK GRN BECMG WHT
EGLF - Farnborough, United Kingdom
Distance from station: NE 35mi, 57km
Updated: Mon, 06-Dec-2021 13:20 GMT
Light rain, Mostly cloudy
Light rain, Mostly cloudy
 Wind from S
Wind: S 14 mph , 22 km/h
Temperature: 6°C
Wind Chill: 2°C
Dew Point: 5°C
Humidity: 93%
Barometer: 1005 hPa
Summary: Light Rain
Clouds: Mostly Cloudy
Visibility: 6 miles , 10 km
Cloud details: Partly Cloudy 914 m
Mostly Cloudy 1189 m
2021/12/06 13:20 EGLF 061320Z 19012KT 9999 -RA SCT030 BKN039 06/05 Q1005

Metar display script from Saratoga-Weather.org